sensor_id;sensor_type;location;lat;lon;timestamp;P1;durP1;ratioP1;P2;durP2;ratioP2
3066;SDS011;1544;48.834;9.194;2023-02-08T00:00:02;13.93;;;9.18;;
3066;SDS011;1544;48.834;9.194;2023-02-08T00:02:40;15.00;;;8.63;;
3066;SDS011;1544;48.834;9.194;2023-02-08T00:05:16;12.68;;;8.40;;
3066;SDS011;1544;48.834;9.194;2023-02-08T00:07:51;12.45;;;8.55;;
3066;SDS011;1544;48.834;9.194;2023-02-08T00:10:26;11.85;;;8.35;;
3066;SDS011;1544;48.834;9.194;2023-02-08T00:13:01;12.85;;;8.30;;
3066;SDS011;1544;48.834;9.194;2023-02-08T00:15:40;12.60;;;8.40;;
3066;SDS011;1544;48.834;9.194;2023-02-08T00:18:17;11.27;;;8.30;;
3066;SDS011;1544;48.834;9.194;2023-02-08T00:20:53;11.68;;;8.40;;
3066;SDS011;1544;48.834;9.194;2023-02-08T00:23:29;17.77;;;8.65;;
3066;SDS011;1544;48.834;9.194;2023-02-08T00:26:04;11.48;;;7.80;;
3066;SDS011;1544;48.834;9.194;2023-02-08T00:28:39;11.85;;;8.00;;
3066;SDS011;1544;48.834;9.194;2023-02-08T00:31:15;13.20;;;8.20;;
3066;SDS011;1544;48.834;9.194;2023-02-08T00:33:50;9.55;;;7.47;;
3066;SDS011;1544;48.834;9.194;2023-02-08T00:36:25;12.40;;;7.93;;
3066;SDS011;1544;48.834;9.194;2023-02-08T00:39:00;9.73;;;6.75;;
3066;SDS011;1544;48.834;9.194;2023-02-08T00:41:35;10.55;;;8.05;;
3066;SDS011;1544;48.834;9.194;2023-02-08T00:44:10;12.85;;;7.47;;
3066;SDS011;1544;48.834;9.194;2023-02-08T00:46:45;12.82;;;8.30;;
3066;SDS011;1544;48.834;9.194;2023-02-08T00:49:20;12.55;;;7.50;;
3066;SDS011;1544;48.834;9.194;2023-02-08T00:51:55;11.45;;;7.00;;
3066;SDS011;1544;48.834;9.194;2023-02-08T00:54:30;9.70;;;6.95;;
3066;SDS011;1544;48.834;9.194;2023-02-08T00:57:05;12.27;;;7.63;;
3066;SDS011;1544;48.834;9.194;2023-02-08T00:59:40;11.02;;;7.28;;
3066;SDS011;1544;48.834;9.194;2023-02-08T01:02:15;9.05;;;7.00;;
3066;SDS011;1544;48.834;9.194;2023-02-08T01:04:51;11.50;;;7.18;;
3066;SDS011;1544;48.834;9.194;2023-02-08T01:07:26;10.85;;;7.32;;
3066;SDS011;1544;48.834;9.194;2023-02-08T01:10:01;11.13;;;7.95;;
3066;SDS011;1544;48.834;9.194;2023-02-08T01:12:38;9.57;;;7.60;;
3066;SDS011;1544;48.834;9.194;2023-02-08T01:15:13;9.80;;;7.70;;
3066;SDS011;1544;48.834;9.194;2023-02-08T01:17:52;10.75;;;7.85;;
3066;SDS011;1544;48.834;9.194;2023-02-08T01:20:32;10.85;;;7.45;;
3066;SDS011;1544;48.834;9.194;2023-02-08T01:23:09;11.82;;;8.38;;
3066;SDS011;1544;48.834;9.194;2023-02-08T01:25:45;12.88;;;7.47;;
3066;SDS011;1544;48.834;9.194;2023-02-08T01:28:20;12.77;;;8.35;;
3066;SDS011;1544;48.834;9.194;2023-02-08T01:30:55;11.45;;;6.78;;
3066;SDS011;1544;48.834;9.194;2023-02-08T01:33:30;13.00;;;7.25;;
3066;SDS011;1544;48.834;9.194;2023-02-08T01:36:07;14.90;;;8.23;;
3066;SDS011;1544;48.834;9.194;2023-02-08T01:38:43;10.63;;;7.40;;
3066;SDS011;1544;48.834;9.194;2023-02-08T01:41:38;12.77;;;7.97;;
3066;SDS011;1544;48.834;9.194;2023-02-08T01:47:30;12.98;;;8.18;;
3066;SDS011;1544;48.834;9.194;2023-02-08T01:50:05;11.93;;;8.63;;
3066;SDS011;1544;48.834;9.194;2023-02-08T01:52:41;13.65;;;9.15;;
3066;SDS011;1544;48.834;9.194;2023-02-08T01:55:19;11.68;;;7.97;;
3066;SDS011;1544;48.834;9.194;2023-02-08T01:58:00;12.23;;;8.63;;
3066;SDS011;1544;48.834;9.194;2023-02-08T02:00:39;12.05;;;7.65;;
3066;SDS011;1544;48.834;9.194;2023-02-08T02:03:19;13.35;;;9.27;;
3066;SDS011;1544;48.834;9.194;2023-02-08T02:06:00;12.43;;;8.57;;
3066;SDS011;1544;48.834;9.194;2023-02-08T02:08:47;14.18;;;9.40;;
3066;SDS011;1544;48.834;9.194;2023-02-08T02:11:44;15.05;;;8.32;;
3066;SDS011;1544;48.834;9.194;2023-02-08T02:14:20;14.20;;;8.57;;
3066;SDS011;1544;48.834;9.194;2023-02-08T02:16:58;14.98;;;8.45;;
3066;SDS011;1544;48.834;9.194;2023-02-08T02:33:05;13.18;;;8.90;;
3066;SDS011;1544;48.834;9.194;2023-02-08T02:42:22;12.60;;;8.65;;
3066;SDS011;1544;48.834;9.194;2023-02-08T02:48:32;13.05;;;9.57;;
3066;SDS011;1544;48.834;9.194;2023-02-08T02:51:42;13.02;;;8.32;;
3066;SDS011;1544;48.834;9.194;2023-02-08T02:54:32;13.30;;;9.10;;
3066;SDS011;1544;48.834;9.194;2023-02-08T02:57:21;16.67;;;8.13;;
3066;SDS011;1544;48.834;9.194;2023-02-08T03:00:06;11.95;;;8.13;;
3066;SDS011;1544;48.834;9.194;2023-02-08T03:02:44;12.13;;;8.40;;
3066;SDS011;1544;48.834;9.194;2023-02-08T03:05:18;14.23;;;9.00;;
3066;SDS011;1544;48.834;9.194;2023-02-08T03:11:22;12.43;;;8.85;;
3066;SDS011;1544;48.834;9.194;2023-02-08T03:22:51;12.93;;;7.85;;
3066;SDS011;1544;48.834;9.194;2023-02-08T03:25:41;12.38;;;8.38;;
3066;SDS011;1544;48.834;9.194;2023-02-08T03:28:29;11.40;;;7.72;;
3066;SDS011;1544;48.834;9.194;2023-02-08T03:31:52;11.90;;;8.68;;
3066;SDS011;1544;48.834;9.194;2023-02-08T03:34:45;15.50;;;8.88;;
3066;SDS011;1544;48.834;9.194;2023-02-08T03:40:21;12.95;;;7.40;;
3066;SDS011;1544;48.834;9.194;2023-02-08T03:43:02;8.70;;;7.20;;
3066;SDS011;1544;48.834;9.194;2023-02-08T03:45:50;11.00;;;7.88;;
3066;SDS011;1544;48.834;9.194;2023-02-08T03:48:30;12.75;;;8.65;;
3066;SDS011;1544;48.834;9.194;2023-02-08T03:51:08;13.50;;;7.97;;
3066;SDS011;1544;48.834;9.194;2023-02-08T03:53:44;10.23;;;7.25;;
3066;SDS011;1544;48.834;9.194;2023-02-08T03:56:25;14.00;;;8.02;;
3066;SDS011;1544;48.834;9.194;2023-02-08T03:59:11;15.25;;;8.43;;
3066;SDS011;1544;48.834;9.194;2023-02-08T04:01:58;15.18;;;8.15;;
3066;SDS011;1544;48.834;9.194;2023-02-08T04:04:37;14.30;;;7.90;;
3066;SDS011;1544;48.834;9.194;2023-02-08T04:07:18;14.90;;;8.63;;
3066;SDS011;1544;48.834;9.194;2023-02-08T04:09:54;12.48;;;7.75;;
3066;SDS011;1544;48.834;9.194;2023-02-08T04:12:28;13.70;;;9.35;;
3066;SDS011;1544;48.834;9.194;2023-02-08T04:15:03;15.63;;;9.18;;
3066;SDS011;1544;48.834;9.194;2023-02-08T04:17:39;13.00;;;8.23;;
3066;SDS011;1544;48.834;9.194;2023-02-08T04:20:14;13.40;;;8.00;;
3066;SDS011;1544;48.834;9.194;2023-02-08T04:22:49;13.80;;;8.43;;
3066;SDS011;1544;48.834;9.194;2023-02-08T04:25:25;10.80;;;7.68;;
3066;SDS011;1544;48.834;9.194;2023-02-08T04:28:00;12.93;;;8.38;;
3066;SDS011;1544;48.834;9.194;2023-02-08T04:30:35;12.82;;;9.00;;
3066;SDS011;1544;48.834;9.194;2023-02-08T04:33:15;14.98;;;8.00;;
3066;SDS011;1544;48.834;9.194;2023-02-08T04:35:50;15.82;;;8.95;;
3066;SDS011;1544;48.834;9.194;2023-02-08T04:38:25;16.13;;;8.80;;
3066;SDS011;1544;48.834;9.194;2023-02-08T04:41:01;14.45;;;8.40;;
3066;SDS011;1544;48.834;9.194;2023-02-08T04:43:36;11.65;;;7.55;;
3066;SDS011;1544;48.834;9.194;2023-02-08T04:46:11;12.63;;;8.70;;
3066;SDS011;1544;48.834;9.194;2023-02-08T04:48:46;10.43;;;7.93;;
3066;SDS011;1544;48.834;9.194;2023-02-08T04:51:21;11.85;;;7.57;;
3066;SDS011;1544;48.834;9.194;2023-02-08T04:53:57;11.57;;;8.02;;
3066;SDS011;1544;48.834;9.194;2023-02-08T04:56:32;16.27;;;8.40;;
3066;SDS011;1544;48.834;9.194;2023-02-08T04:59:07;12.75;;;8.50;;
3066;SDS011;1544;48.834;9.194;2023-02-08T05:01:42;14.48;;;8.95;;
3066;SDS011;1544;48.834;9.194;2023-02-08T05:04:18;12.48;;;8.63;;
3066;SDS011;1544;48.834;9.194;2023-02-08T05:06:53;15.43;;;8.38;;
3066;SDS011;1544;48.834;9.194;2023-02-08T05:09:28;14.93;;;9.00;;
3066;SDS011;1544;48.834;9.194;2023-02-08T05:12:03;14.52;;;8.45;;
3066;SDS011;1544;48.834;9.194;2023-02-08T05:14:38;11.05;;;7.55;;
3066;SDS011;1544;48.834;9.194;2023-02-08T05:17:13;13.63;;;8.00;;
3066;SDS011;1544;48.834;9.194;2023-02-08T05:19:48;18.85;;;8.63;;
3066;SDS011;1544;48.834;9.194;2023-02-08T05:22:23;13.57;;;9.18;;
3066;SDS011;1544;48.834;9.194;2023-02-08T05:24:58;14.60;;;8.57;;
3066;SDS011;1544;48.834;9.194;2023-02-08T05:27:33;11.48;;;7.72;;
3066;SDS011;1544;48.834;9.194;2023-02-08T05:30:10;14.20;;;8.48;;
3066;SDS011;1544;48.834;9.194;2023-02-08T05:32:45;12.35;;;7.65;;
3066;SDS011;1544;48.834;9.194;2023-02-08T05:35:20;14.52;;;8.10;;
3066;SDS011;1544;48.834;9.194;2023-02-08T05:37:55;13.18;;;9.48;;
3066;SDS011;1544;48.834;9.194;2023-02-08T05:40:31;12.82;;;8.60;;
3066;SDS011;1544;48.834;9.194;2023-02-08T05:43:08;16.95;;;10.10;;
3066;SDS011;1544;48.834;9.194;2023-02-08T05:45:43;16.00;;;9.25;;
3066;SDS011;1544;48.834;9.194;2023-02-08T05:48:18;12.65;;;9.27;;
3066;SDS011;1544;48.834;9.194;2023-02-08T05:50:53;15.85;;;9.65;;
3066;SDS011;1544;48.834;9.194;2023-02-08T05:53:28;12.27;;;8.55;;
3066;SDS011;1544;48.834;9.194;2023-02-08T05:56:04;14.35;;;8.88;;
3066;SDS011;1544;48.834;9.194;2023-02-08T05:58:40;17.02;;;9.75;;
3066;SDS011;1544;48.834;9.194;2023-02-08T06:01:15;12.52;;;8.43;;
3066;SDS011;1544;48.834;9.194;2023-02-08T06:03:50;15.27;;;9.73;;
3066;SDS011;1544;48.834;9.194;2023-02-08T06:06:26;15.23;;;9.90;;
3066;SDS011;1544;48.834;9.194;2023-02-08T06:09:02;18.58;;;10.20;;
3066;SDS011;1544;48.834;9.194;2023-02-08T06:11:38;13.55;;;9.18;;
3066;SDS011;1544;48.834;9.194;2023-02-08T06:14:13;13.75;;;9.30;;
3066;SDS011;1544;48.834;9.194;2023-02-08T06:16:48;16.83;;;8.95;;
3066;SDS011;1544;48.834;9.194;2023-02-08T06:19:23;17.90;;;9.15;;
3066;SDS011;1544;48.834;9.194;2023-02-08T06:21:58;16.45;;;9.80;;
3066;SDS011;1544;48.834;9.194;2023-02-08T06:24:33;17.35;;;8.10;;
3066;SDS011;1544;48.834;9.194;2023-02-08T06:27:08;13.30;;;8.73;;
3066;SDS011;1544;48.834;9.194;2023-02-08T06:29:43;16.15;;;9.80;;
3066;SDS011;1544;48.834;9.194;2023-02-08T06:32:18;15.18;;;9.38;;
3066;SDS011;1544;48.834;9.194;2023-02-08T06:34:53;14.63;;;8.35;;
3066;SDS011;1544;48.834;9.194;2023-02-08T06:37:29;17.15;;;9.23;;
3066;SDS011;1544;48.834;9.194;2023-02-08T06:40:04;15.13;;;9.63;;
3066;SDS011;1544;48.834;9.194;2023-02-08T06:42:40;13.50;;;9.30;;
3066;SDS011;1544;48.834;9.194;2023-02-08T06:45:16;21.30;;;9.90;;
3066;SDS011;1544;48.834;9.194;2023-02-08T06:47:52;17.58;;;9.73;;
3066;SDS011;1544;48.834;9.194;2023-02-08T06:50:27;25.52;;;10.70;;
3066;SDS011;1544;48.834;9.194;2023-02-08T06:53:02;14.93;;;9.80;;
3066;SDS011;1544;48.834;9.194;2023-02-08T06:55:37;17.42;;;9.30;;
3066;SDS011;1544;48.834;9.194;2023-02-08T06:58:13;14.73;;;8.65;;
3066;SDS011;1544;48.834;9.194;2023-02-08T07:00:48;15.48;;;9.65;;
3066;SDS011;1544;48.834;9.194;2023-02-08T07:03:23;15.27;;;10.27;;
3066;SDS011;1544;48.834;9.194;2023-02-08T07:05:58;17.52;;;10.25;;
3066;SDS011;1544;48.834;9.194;2023-02-08T07:08:38;18.92;;;10.52;;
3066;SDS011;1544;48.834;9.194;2023-02-08T07:11:14;22.83;;;12.82;;
3066;SDS011;1544;48.834;9.194;2023-02-08T07:13:53;22.27;;;13.27;;
3066;SDS011;1544;48.834;9.194;2023-02-08T07:16:29;20.90;;;12.77;;
3066;SDS011;1544;48.834;9.194;2023-02-08T07:19:04;19.95;;;12.40;;
3066;SDS011;1544;48.834;9.194;2023-02-08T07:21:39;18.20;;;10.95;;
3066;SDS011;1544;48.834;9.194;2023-02-08T07:24:14;19.67;;;13.43;;
3066;SDS011;1544;48.834;9.194;2023-02-08T07:26:49;21.75;;;11.10;;
3066;SDS011;1544;48.834;9.194;2023-02-08T07:29:24;17.13;;;10.80;;
3066;SDS011;1544;48.834;9.194;2023-02-08T07:31:59;15.45;;;10.38;;
3066;SDS011;1544;48.834;9.194;2023-02-08T07:34:36;16.85;;;10.00;;
3066;SDS011;1544;48.834;9.194;2023-02-08T07:37:13;20.65;;;10.18;;
3066;SDS011;1544;48.834;9.194;2023-02-08T07:39:49;21.52;;;11.27;;
3066;SDS011;1544;48.834;9.194;2023-02-08T07:42:23;20.75;;;10.93;;
3066;SDS011;1544;48.834;9.194;2023-02-08T07:45:10;17.77;;;10.80;;
3066;SDS011;1544;48.834;9.194;2023-02-08T07:47:45;17.98;;;10.55;;
3066;SDS011;1544;48.834;9.194;2023-02-08T07:50:20;18.33;;;11.55;;
3066;SDS011;1544;48.834;9.194;2023-02-08T07:52:55;21.80;;;11.68;;
3066;SDS011;1544;48.834;9.194;2023-02-08T07:55:31;16.75;;;11.02;;
3066;SDS011;1544;48.834;9.194;2023-02-08T07:58:06;18.55;;;11.90;;
3066;SDS011;1544;48.834;9.194;2023-02-08T08:00:41;15.68;;;10.25;;
3066;SDS011;1544;48.834;9.194;2023-02-08T08:03:16;16.27;;;10.57;;
3066;SDS011;1544;48.834;9.194;2023-02-08T08:05:51;17.35;;;11.02;;
3066;SDS011;1544;48.834;9.194;2023-02-08T08:08:28;18.27;;;10.23;;
3066;SDS011;1544;48.834;9.194;2023-02-08T08:11:03;19.70;;;10.85;;
3066;SDS011;1544;48.834;9.194;2023-02-08T08:13:39;17.45;;;11.32;;
3066;SDS011;1544;48.834;9.194;2023-02-08T08:16:19;15.93;;;10.20;;
3066;SDS011;1544;48.834;9.194;2023-02-08T08:18:58;15.77;;;10.35;;
3066;SDS011;1544;48.834;9.194;2023-02-08T08:21:33;15.77;;;9.30;;
3066;SDS011;1544;48.834;9.194;2023-02-08T08:24:09;14.55;;;9.90;;
3066;SDS011;1544;48.834;9.194;2023-02-08T08:26:44;15.75;;;9.43;;
3066;SDS011;1544;48.834;9.194;2023-02-08T08:29:19;16.33;;;11.43;;
3066;SDS011;1544;48.834;9.194;2023-02-08T08:31:54;17.55;;;9.85;;
3066;SDS011;1544;48.834;9.194;2023-02-08T08:34:29;17.67;;;10.52;;
3066;SDS011;1544;48.834;9.194;2023-02-08T08:37:05;19.02;;;10.95;;
3066;SDS011;1544;48.834;9.194;2023-02-08T08:39:40;19.23;;;12.15;;
3066;SDS011;1544;48.834;9.194;2023-02-08T08:42:19;18.48;;;11.15;;
3066;SDS011;1544;48.834;9.194;2023-02-08T08:44:54;18.10;;;10.57;;
3066;SDS011;1544;48.834;9.194;2023-02-08T08:47:29;17.92;;;11.07;;
3066;SDS011;1544;48.834;9.194;2023-02-08T08:50:04;21.58;;;12.82;;
3066;SDS011;1544;48.834;9.194;2023-02-08T08:52:40;18.92;;;11.45;;
3066;SDS011;1544;48.834;9.194;2023-02-08T08:55:16;18.23;;;11.68;;
3066;SDS011;1544;48.834;9.194;2023-02-08T08:57:51;15.10;;;10.52;;
3066;SDS011;1544;48.834;9.194;2023-02-08T09:00:27;17.85;;;10.30;;
3066;SDS011;1544;48.834;9.194;2023-02-08T09:03:01;15.65;;;9.95;;
3066;SDS011;1544;48.834;9.194;2023-02-08T09:05:37;17.38;;;9.93;;
3066;SDS011;1544;48.834;9.194;2023-02-08T09:08:12;15.20;;;9.68;;
3066;SDS011;1544;48.834;9.194;2023-02-08T09:10:47;19.30;;;9.77;;
3066;SDS011;1544;48.834;9.194;2023-02-08T09:13:22;11.95;;;8.57;;
3066;SDS011;1544;48.834;9.194;2023-02-08T09:15:57;16.73;;;10.98;;
3066;SDS011;1544;48.834;9.194;2023-02-08T09:18:32;21.13;;;10.63;;
3066;SDS011;1544;48.834;9.194;2023-02-08T09:21:11;13.68;;;9.50;;
3066;SDS011;1544;48.834;9.194;2023-02-08T09:23:49;17.05;;;10.23;;
3066;SDS011;1544;48.834;9.194;2023-02-08T09:26:24;15.75;;;10.45;;
3066;SDS011;1544;48.834;9.194;2023-02-08T09:29:01;16.50;;;8.95;;
3066;SDS011;1544;48.834;9.194;2023-02-08T09:31:37;16.63;;;10.05;;
3066;SDS011;1544;48.834;9.194;2023-02-08T09:34:13;16.75;;;10.93;;
3066;SDS011;1544;48.834;9.194;2023-02-08T09:36:48;17.00;;;11.40;;
3066;SDS011;1544;48.834;9.194;2023-02-08T09:39:23;18.38;;;12.23;;
3066;SDS011;1544;48.834;9.194;2023-02-08T09:42:12;17.30;;;10.32;;
3066;SDS011;1544;48.834;9.194;2023-02-08T09:48:15;18.02;;;9.52;;
3066;SDS011;1544;48.834;9.194;2023-02-08T09:51:00;13.73;;;9.48;;
3066;SDS011;1544;48.834;9.194;2023-02-08T09:57:11;16.77;;;10.18;;
3066;SDS011;1544;48.834;9.194;2023-02-08T09:59:53;15.43;;;10.00;;
3066;SDS011;1544;48.834;9.194;2023-02-08T10:02:37;22.17;;;11.68;;
3066;SDS011;1544;48.834;9.194;2023-02-08T10:05:19;15.03;;;10.07;;
3066;SDS011;1544;48.834;9.194;2023-02-08T10:07:56;14.65;;;10.65;;
3066;SDS011;1544;48.834;9.194;2023-02-08T10:19:26;23.60;;;12.95;;
3066;SDS011;1544;48.834;9.194;2023-02-08T10:34:55;16.27;;;11.00;;
3066;SDS011;1544;48.834;9.194;2023-02-08T10:37:37;16.97;;;10.00;;
3066;SDS011;1544;48.834;9.194;2023-02-08T10:40:21;19.57;;;11.43;;
3066;SDS011;1544;48.834;9.194;2023-02-08T10:46:43;16.47;;;9.90;;
3066;SDS011;1544;48.834;9.194;2023-02-08T10:52:33;15.50;;;9.93;;
3066;SDS011;1544;48.834;9.194;2023-02-08T10:55:11;15.33;;;9.97;;
3066;SDS011;1544;48.834;9.194;2023-02-08T10:57:55;14.57;;;9.40;;
3066;SDS011;1544;48.834;9.194;2023-02-08T11:00:39;14.10;;;10.17;;
3066;SDS011;1544;48.834;9.194;2023-02-08T11:03:22;16.83;;;11.07;;
3066;SDS011;1544;48.834;9.194;2023-02-08T11:06:00;16.67;;;8.90;;
3066;SDS011;1544;48.834;9.194;2023-02-08T11:08:37;11.57;;;8.47;;
3066;SDS011;1544;48.834;9.194;2023-02-08T11:11:34;14.87;;;9.30;;
3066;SDS011;1544;48.834;9.194;2023-02-08T11:14:16;12.83;;;9.40;;
3066;SDS011;1544;48.834;9.194;2023-02-08T11:16:59;11.80;;;8.60;;
3066;SDS011;1544;48.834;9.194;2023-02-08T11:19:39;15.57;;;9.30;;
3066;SDS011;1544;48.834;9.194;2023-02-08T11:22:16;13.10;;;8.67;;
3066;SDS011;1544;48.834;9.194;2023-02-08T11:24:56;17.90;;;9.30;;
3066;SDS011;1544;48.834;9.194;2023-02-08T11:27:36;13.47;;;8.53;;
3066;SDS011;1544;48.834;9.194;2023-02-08T11:30:18;11.27;;;9.00;;
3066;SDS011;1544;48.834;9.194;2023-02-08T11:33:17;11.37;;;8.10;;
3066;SDS011;1544;48.834;9.194;2023-02-08T11:36:05;8.63;;;7.40;;
3066;SDS011;1544;48.834;9.194;2023-02-08T11:38:45;10.60;;;8.23;;
3066;SDS011;1544;48.834;9.194;2023-02-08T11:41:20;10.83;;;7.90;;
3066;SDS011;1544;48.834;9.194;2023-02-08T11:43:58;13.10;;;8.10;;
3066;SDS011;1544;48.834;9.194;2023-02-08T11:46:39;11.27;;;7.30;;
3066;SDS011;1544;48.834;9.194;2023-02-08T11:49:25;11.00;;;8.03;;
3066;SDS011;1544;48.834;9.194;2023-02-08T11:52:22;9.00;;;7.57;;
3066;SDS011;1544;48.834;9.194;2023-02-08T11:55:13;8.53;;;7.03;;
3066;SDS011;1544;48.834;9.194;2023-02-08T11:58:14;8.20;;;6.63;;
3066;SDS011;1544;48.834;9.194;2023-02-08T12:00:59;8.73;;;6.80;;
3066;SDS011;1544;48.834;9.194;2023-02-08T12:03:39;9.33;;;7.53;;
3066;SDS011;1544;48.834;9.194;2023-02-08T12:12:22;10.27;;;7.43;;
3066;SDS011;1544;48.834;9.194;2023-02-08T12:15:16;7.53;;;5.73;;
3066;SDS011;1544;48.834;9.194;2023-02-08T12:21:41;8.47;;;5.80;;
3066;SDS011;1544;48.834;9.194;2023-02-08T12:27:24;7.03;;;4.60;;
3066;SDS011;1544;48.834;9.194;2023-02-08T12:30:33;7.53;;;4.73;;
3066;SDS011;1544;48.834;9.194;2023-02-08T12:33:32;8.03;;;5.03;;
3066;SDS011;1544;48.834;9.194;2023-02-08T12:36:46;5.17;;;4.50;;
3066;SDS011;1544;48.834;9.194;2023-02-08T12:46:20;3.70;;;3.40;;
3066;SDS011;1544;48.834;9.194;2023-02-08T12:52:18;6.97;;;4.70;;
3066;SDS011;1544;48.834;9.194;2023-02-08T12:58:23;4.63;;;4.13;;
3066;SDS011;1544;48.834;9.194;2023-02-08T13:04:00;5.07;;;3.40;;
3066;SDS011;1544;48.834;9.194;2023-02-08T13:06:46;5.50;;;4.07;;
3066;SDS011;1544;48.834;9.194;2023-02-08T13:09:35;4.17;;;3.77;;
3066;SDS011;1544;48.834;9.194;2023-02-08T13:13:05;5.60;;;4.40;;
3066;SDS011;1544;48.834;9.194;2023-02-08T13:19:20;7.23;;;4.43;;
3066;SDS011;1544;48.834;9.194;2023-02-08T13:21:58;4.80;;;4.30;;
3066;SDS011;1544;48.834;9.194;2023-02-08T13:24:34;5.93;;;4.17;;
3066;SDS011;1544;48.834;9.194;2023-02-08T13:27:17;5.50;;;4.13;;
3066;SDS011;1544;48.834;9.194;2023-02-08T13:29:55;4.50;;;4.10;;
3066;SDS011;1544;48.834;9.194;2023-02-08T13:32:40;4.30;;;3.90;;
3066;SDS011;1544;48.834;9.194;2023-02-08T13:38:03;5.50;;;4.37;;
3066;SDS011;1544;48.834;9.194;2023-02-08T13:41:06;4.70;;;4.20;;
3066;SDS011;1544;48.834;9.194;2023-02-08T13:43:54;5.63;;;4.23;;
3066;SDS011;1544;48.834;9.194;2023-02-08T13:46:43;4.47;;;3.63;;
3066;SDS011;1544;48.834;9.194;2023-02-08T13:49:41;4.70;;;4.03;;
3066;SDS011;1544;48.834;9.194;2023-02-08T14:03:30;4.70;;;3.90;;
3066;SDS011;1544;48.834;9.194;2023-02-08T14:06:21;4.70;;;4.30;;
3066;SDS011;1544;48.834;9.194;2023-02-08T14:09:08;5.60;;;5.00;;
3066;SDS011;1544;48.834;9.194;2023-02-08T14:12:41;5.23;;;4.70;;
3066;SDS011;1544;48.834;9.194;2023-02-08T14:15:42;4.83;;;4.43;;
3066;SDS011;1544;48.834;9.194;2023-02-08T14:18:20;5.03;;;4.20;;
3066;SDS011;1544;48.834;9.194;2023-02-08T14:21:03;5.30;;;4.80;;
3066;SDS011;1544;48.834;9.194;2023-02-08T14:23:41;6.10;;;5.20;;
3066;SDS011;1544;48.834;9.194;2023-02-08T14:26:17;6.53;;;5.50;;
3066;SDS011;1544;48.834;9.194;2023-02-08T14:28:58;5.73;;;5.17;;
3066;SDS011;1544;48.834;9.194;2023-02-08T14:31:39;7.13;;;6.43;;
3066;SDS011;1544;48.834;9.194;2023-02-08T14:34:33;6.23;;;5.60;;
3066;SDS011;1544;48.834;9.194;2023-02-08T14:42:58;7.43;;;6.37;;
3066;SDS011;1544;48.834;9.194;2023-02-08T14:45:34;7.13;;;6.27;;
3066;SDS011;1544;48.834;9.194;2023-02-08T14:48:20;7.90;;;6.47;;
3066;SDS011;1544;48.834;9.194;2023-02-08T14:51:15;9.07;;;6.33;;
3066;SDS011;1544;48.834;9.194;2023-02-08T14:53:57;9.10;;;6.40;;
3066;SDS011;1544;48.834;9.194;2023-02-08T14:56:53;7.60;;;6.07;;
3066;SDS011;1544;48.834;9.194;2023-02-08T14:59:32;5.90;;;5.17;;
3066;SDS011;1544;48.834;9.194;2023-02-08T15:02:14;8.20;;;5.83;;
3066;SDS011;1544;48.834;9.194;2023-02-08T15:04:59;7.60;;;6.37;;
3066;SDS011;1544;48.834;9.194;2023-02-08T15:07:44;6.87;;;5.63;;
3066;SDS011;1544;48.834;9.194;2023-02-08T15:10:25;6.27;;;5.20;;
3066;SDS011;1544;48.834;9.194;2023-02-08T15:13:03;8.40;;;6.03;;
3066;SDS011;1544;48.834;9.194;2023-02-08T15:15:41;6.27;;;5.20;;
3066;SDS011;1544;48.834;9.194;2023-02-08T15:18:38;7.37;;;5.77;;
3066;SDS011;1544;48.834;9.194;2023-02-08T15:21:15;7.33;;;5.37;;
3066;SDS011;1544;48.834;9.194;2023-02-08T15:26:50;6.60;;;5.97;;
3066;SDS011;1544;48.834;9.194;2023-02-08T15:29:28;8.97;;;6.63;;
3066;SDS011;1544;48.834;9.194;2023-02-08T15:32:18;9.00;;;6.70;;
3066;SDS011;1544;48.834;9.194;2023-02-08T15:34:57;7.30;;;6.13;;
3066;SDS011;1544;48.834;9.194;2023-02-08T15:37:37;8.60;;;6.63;;
3066;SDS011;1544;48.834;9.194;2023-02-08T15:40:22;6.47;;;5.87;;
3066;SDS011;1544;48.834;9.194;2023-02-08T15:45:41;7.00;;;5.60;;
3066;SDS011;1544;48.834;9.194;2023-02-08T15:48:16;7.37;;;6.23;;
3066;SDS011;1544;48.834;9.194;2023-02-08T15:50:51;7.00;;;6.13;;
3066;SDS011;1544;48.834;9.194;2023-02-08T15:53:28;9.73;;;6.53;;
3066;SDS011;1544;48.834;9.194;2023-02-08T15:56:04;9.50;;;6.43;;
3066;SDS011;1544;48.834;9.194;2023-02-08T15:58:43;11.90;;;7.10;;
3066;SDS011;1544;48.834;9.194;2023-02-08T16:01:24;9.30;;;6.53;;
3066;SDS011;1544;48.834;9.194;2023-02-08T16:03:59;8.33;;;6.07;;
3066;SDS011;1544;48.834;9.194;2023-02-08T16:06:43;8.50;;;6.97;;
3066;SDS011;1544;48.834;9.194;2023-02-08T16:09:29;10.10;;;6.80;;
3066;SDS011;1544;48.834;9.194;2023-02-08T16:12:04;7.60;;;6.43;;
3066;SDS011;1544;48.834;9.194;2023-02-08T16:14:47;9.67;;;6.53;;
3066;SDS011;1544;48.834;9.194;2023-02-08T16:17:35;9.37;;;7.00;;
3066;SDS011;1544;48.834;9.194;2023-02-08T16:20:24;7.93;;;6.17;;
3066;SDS011;1544;48.834;9.194;2023-02-08T16:23:24;10.50;;;7.33;;
3066;SDS011;1544;48.834;9.194;2023-02-08T16:26:09;10.83;;;6.97;;
3066;SDS011;1544;48.834;9.194;2023-02-08T16:28:56;14.00;;;8.23;;
3066;SDS011;1544;48.834;9.194;2023-02-08T16:31:35;11.43;;;7.27;;
3066;SDS011;1544;48.834;9.194;2023-02-08T16:34:14;10.23;;;7.40;;
3066;SDS011;1544;48.834;9.194;2023-02-08T16:36:52;11.37;;;6.77;;
3066;SDS011;1544;48.834;9.194;2023-02-08T16:39:35;12.10;;;8.13;;
3066;SDS011;1544;48.834;9.194;2023-02-08T16:42:36;10.03;;;7.30;;
3066;SDS011;1544;48.834;9.194;2023-02-08T16:45:18;16.77;;;9.33;;
3066;SDS011;1544;48.834;9.194;2023-02-08T16:47:56;12.87;;;8.00;;
3066;SDS011;1544;48.834;9.194;2023-02-08T16:50:46;12.20;;;7.97;;
3066;SDS011;1544;48.834;9.194;2023-02-08T16:53:21;13.30;;;8.80;;
3066;SDS011;1544;48.834;9.194;2023-02-08T16:56:14;16.27;;;9.13;;
3066;SDS011;1544;48.834;9.194;2023-02-08T16:58:49;10.30;;;7.40;;
3066;SDS011;1544;48.834;9.194;2023-02-08T17:01:24;10.87;;;7.97;;
3066;SDS011;1544;48.834;9.194;2023-02-08T17:04:01;11.77;;;8.50;;
3066;SDS011;1544;48.834;9.194;2023-02-08T17:06:37;13.70;;;8.40;;
3066;SDS011;1544;48.834;9.194;2023-02-08T17:09:15;11.47;;;8.03;;
3066;SDS011;1544;48.834;9.194;2023-02-08T17:11:50;8.97;;;6.90;;
3066;SDS011;1544;48.834;9.194;2023-02-08T17:14:25;10.70;;;7.80;;
3066;SDS011;1544;48.834;9.194;2023-02-08T17:17:00;11.20;;;7.63;;
3066;SDS011;1544;48.834;9.194;2023-02-08T17:19:35;13.17;;;7.73;;
3066;SDS011;1544;48.834;9.194;2023-02-08T17:22:10;12.13;;;8.27;;
3066;SDS011;1544;48.834;9.194;2023-02-08T17:24:45;12.33;;;7.30;;
3066;SDS011;1544;48.834;9.194;2023-02-08T17:27:20;11.07;;;7.37;;
3066;SDS011;1544;48.834;9.194;2023-02-08T17:29:56;11.50;;;9.10;;
3066;SDS011;1544;48.834;9.194;2023-02-08T17:32:30;11.30;;;8.90;;
3066;SDS011;1544;48.834;9.194;2023-02-08T17:35:05;14.20;;;9.87;;
3066;SDS011;1544;48.834;9.194;2023-02-08T17:37:41;14.10;;;11.00;;
3066;SDS011;1544;48.834;9.194;2023-02-08T17:40:20;16.30;;;10.57;;
3066;SDS011;1544;48.834;9.194;2023-02-08T17:43:00;18.03;;;11.10;;
3066;SDS011;1544;48.834;9.194;2023-02-08T17:45:37;17.47;;;11.10;;
3066;SDS011;1544;48.834;9.194;2023-02-08T17:48:14;16.43;;;10.70;;
3066;SDS011;1544;48.834;9.194;2023-02-08T17:50:49;18.97;;;11.40;;
3066;SDS011;1544;48.834;9.194;2023-02-08T17:53:26;17.13;;;10.70;;
3066;SDS011;1544;48.834;9.194;2023-02-08T17:56:01;16.30;;;10.10;;
3066;SDS011;1544;48.834;9.194;2023-02-08T17:58:38;14.43;;;9.70;;
3066;SDS011;1544;48.834;9.194;2023-02-08T18:01:18;16.93;;;9.70;;
3066;SDS011;1544;48.834;9.194;2023-02-08T18:04:00;14.20;;;8.70;;
3066;SDS011;1544;48.834;9.194;2023-02-08T18:06:35;13.53;;;8.60;;
3066;SDS011;1544;48.834;9.194;2023-02-08T18:09:10;12.37;;;9.37;;
3066;SDS011;1544;48.834;9.194;2023-02-08T18:11:45;13.83;;;7.77;;
3066;SDS011;1544;48.834;9.194;2023-02-08T18:14:20;13.53;;;8.70;;
3066;SDS011;1544;48.834;9.194;2023-02-08T18:16:55;13.50;;;9.13;;
3066;SDS011;1544;48.834;9.194;2023-02-08T18:19:31;13.13;;;8.37;;
3066;SDS011;1544;48.834;9.194;2023-02-08T18:22:06;17.70;;;9.23;;
3066;SDS011;1544;48.834;9.194;2023-02-08T18:24:41;10.70;;;8.40;;
3066;SDS011;1544;48.834;9.194;2023-02-08T18:27:16;14.60;;;9.83;;
3066;SDS011;1544;48.834;9.194;2023-02-08T18:29:52;14.37;;;10.20;;
3066;SDS011;1544;48.834;9.194;2023-02-08T18:32:27;16.03;;;8.30;;